Time;durP1;ratioP1;P1;durP2;ratioP2;P2;SDS_P1;SDS_P2;PMS_P1;PMS_P2;Temp;Humidity;BMP_temperature;BMP_pressure;BME280_temperature;BME280_humidity;BME280_pressure;Samples;Min_cycle;Max_cycle;Signal;HPM_P1;HPM_P2
2023/05/12 00:01:49;;;;;;;3.00;2.63;;;;;;;;;;4997943;28;20662;-77
2023/05/12 00:04:14;;;;;;;3.33;2.65;;;;;;;;;;4992311;28;20323;-77
2023/05/12 00:06:39;;;;;;;3.00;2.50;;;;;;;;;;5021764;28;20026;-75
2023/05/12 00:09:05;;;;;;;2.93;2.37;;;;;;;;;;5006548;28;20042;-76
2023/05/12 00:11:30;;;;;;;3.08;2.50;;;;;;;;;;4991639;28;20906;-77
2023/05/12 00:13:55;;;;;;;2.87;2.30;;;;;;;;;;5006053;28;20233;-77
2023/05/12 00:16:20;;;;;;;2.77;2.40;;;;;;;;;;4988463;28;20280;-77
2023/05/12 00:18:46;;;;;;;2.53;2.30;;;;;;;;;;4988636;28;20072;-76
2023/05/12 00:21:11;;;;;;;4.07;2.40;;;;;;;;;;4988625;28;20085;-78
2023/05/12 00:23:36;;;;;;;2.70;2.45;;;;;;;;;;5006709;28;21293;-76
2023/05/12 00:26:01;;;;;;;3.03;2.55;;;;;;;;;;4973251;28;20058;-76
2023/05/12 00:28:27;;;;;;;3.10;2.47;;;;;;;;;;5006117;28;20022;-76
2023/05/12 00:30:52;;;;;;;3.03;2.60;;;;;;;;;;4988569;28;20054;-76
2023/05/12 00:33:17;;;;;;;2.60;2.27;;;;;;;;;;5005299;28;20420;-75
2023/05/12 00:35:44;;;;;;;2.97;2.60;;;;;;;;;;5004362;28;20423;-78
2023/05/12 00:38:10;;;;;;;2.88;2.40;;;;;;;;;;4991835;28;20091;-76
2023/05/12 00:40:35;;;;;;;2.75;2.20;;;;;;;;;;5008041;28;20511;-76
2023/05/12 00:43:00;;;;;;;2.65;2.45;;;;;;;;;;5025556;28;20477;-76
2023/05/12 00:45:28;;;;;;;2.58;2.30;;;;;;;;;;5007429;28;20033;-76
2023/05/12 00:47:53;;;;;;;2.63;2.38;;;;;;;;;;5006938;28;20073;-76
2023/05/12 00:50:18;;;;;;;2.83;2.40;;;;;;;;;;5007634;28;20068;-77
2023/05/12 00:52:43;;;;;;;3.00;2.53;;;;;;;;;;5029242;28;20036;-76
2023/05/12 00:55:09;;;;;;;2.70;2.40;;;;;;;;;;5026380;28;20287;-76
2023/05/12 00:57:34;;;;;;;2.70;2.23;;;;;;;;;;5044699;28;20276;-76
2023/05/12 00:59:59;;;;;;;2.70;2.30;;;;;;;;;;5045487;28;20302;-76
2023/05/12 01:02:25;;;;;;;2.47;2.20;;;;;;;;;;5017186;28;20026;-76
2023/05/12 01:04:50;;;;;;;2.78;2.42;;;;;;;;;;4991507;28;20751;-76
2023/05/12 01:07:20;;;;;;;2.50;2.30;;;;;;;;;;5024183;28;20587;-76
2023/05/12 01:09:45;;;;;;;2.95;2.50;;;;;;;;;;4993399;28;20037;-77
2023/05/12 01:12:10;;;;;;;2.77;2.50;;;;;;;;;;5004144;28;20038;-77
2023/05/12 01:14:35;;;;;;;3.10;2.47;;;;;;;;;;5004491;28;20095;-77
2023/05/12 01:17:02;;;;;;;3.07;2.50;;;;;;;;;;5003383;28;20072;-77
2023/05/12 01:19:53;;;;;;;2.50;2.20;;;;;;;;;;5022321;28;20045;-78
2023/05/12 01:22:19;;;;;;;3.15;2.30;;;;;;;;;;5007467;28;20037;-77
2023/05/12 01:24:45;;;;;;;2.63;2.30;;;;;;;;;;5002776;28;20034;-76
2023/05/12 01:27:11;;;;;;;3.22;2.40;;;;;;;;;;5017503;28;20033;-77
2023/05/12 01:29:36;;;;;;;2.50;2.30;;;;;;;;;;5003168;28;20044;-77
2023/05/12 01:32:02;;;;;;;3.27;2.27;;;;;;;;;;5005524;28;20021;-77
2023/05/12 01:34:27;;;;;;;3.50;2.70;;;;;;;;;;5006715;28;20813;-77
2023/05/12 01:36:52;;;;;;;3.70;2.47;;;;;;;;;;5024645;28;20036;-77
2023/05/12 01:39:17;;;;;;;2.83;2.30;;;;;;;;;;5005972;28;20041;-76
2023/05/12 01:41:42;;;;;;;2.83;2.40;;;;;;;;;;4991645;28;20060;-76
2023/05/12 01:44:08;;;;;;;3.10;2.23;;;;;;;;;;5025501;28;20636;-76
2023/05/12 01:46:33;;;;;;;2.87;2.40;;;;;;;;;;5021143;28;20276;-78
2023/05/12 01:48:58;;;;;;;2.83;2.53;;;;;;;;;;5024419;28;20109;-77
2023/05/12 01:51:23;;;;;;;2.50;2.30;;;;;;;;;;5026973;28;20030;-77
2023/05/12 01:53:49;;;;;;;2.87;2.20;;;;;;;;;;5039047;28;20499;-76
2023/05/12 01:56:14;;;;;;;2.50;2.30;;;;;;;;;;5046160;28;20293;-77
2023/05/12 01:58:39;;;;;;;3.13;2.58;;;;;;;;;;5010892;28;20056;-77
2023/05/12 02:01:05;;;;;;;3.13;2.80;;;;;;;;;;5019878;28;20109;-77
2023/05/12 02:03:30;;;;;;;2.50;2.28;;;;;;;;;;5003607;28;20050;-77
2023/05/12 02:05:55;;;;;;;2.87;2.57;;;;;;;;;;5003418;28;20030;-77
2023/05/12 02:08:20;;;;;;;2.40;2.20;;;;;;;;;;5003979;28;20276;-77
2023/05/12 02:10:46;;;;;;;2.90;2.60;;;;;;;;;;5006371;28;20022;-77
2023/05/12 02:13:11;;;;;;;2.45;2.20;;;;;;;;;;5005675;28;20041;-77
2023/05/12 02:15:37;;;;;;;3.20;2.30;;;;;;;;;;5005082;28;20033;-77
2023/05/12 02:18:03;;;;;;;2.92;2.40;;;;;;;;;;5006207;28;20061;-76
2023/05/12 02:20:28;;;;;;;2.85;2.30;;;;;;;;;;5004988;28;20085;-77
2023/05/12 02:22:53;;;;;;;2.60;2.28;;;;;;;;;;4987686;28;20050;-77
2023/05/12 02:25:19;;;;;;;2.73;2.43;;;;;;;;;;5005024;28;20026;-77
2023/05/12 02:27:44;;;;;;;3.00;2.57;;;;;;;;;;5005372;28;20362;-77
2023/05/12 02:30:09;;;;;;;2.90;2.60;;;;;;;;;;5004190;28;20293;-77
2023/05/12 02:32:34;;;;;;;2.75;2.53;;;;;;;;;;5005282;28;20656;-76
2023/05/12 02:35:00;;;;;;;2.47;2.27;;;;;;;;;;5005367;28;20080;-76
2023/05/12 02:37:25;;;;;;;3.40;2.50;;;;;;;;;;5012832;28;20034;-77
2023/05/12 02:39:50;;;;;;;2.83;2.25;;;;;;;;;;5003530;28;20057;-77
2023/05/12 02:42:16;;;;;;;2.73;2.07;;;;;;;;;;5017629;28;20029;-77
2023/05/12 02:44:43;;;;;;;2.80;2.20;;;;;;;;;;5020938;28;20303;-77
2023/05/12 02:47:09;;;;;;;3.10;2.30;;;;;;;;;;4989862;28;20053;-78
2023/05/12 02:49:35;;;;;;;3.03;2.70;;;;;;;;;;5006595;28;20444;-76
2023/05/12 02:52:00;;;;;;;3.00;2.40;;;;;;;;;;5008269;28;20279;-76
2023/05/12 02:54:25;;;;;;;3.60;2.47;;;;;;;;;;5010419;28;20128;-78
2023/05/12 02:56:50;;;;;;;3.33;2.67;;;;;;;;;;5010401;28;20391;-78
2023/05/12 02:59:16;;;;;;;2.83;2.28;;;;;;;;;;5023992;28;20056;-75
2023/05/12 03:01:41;;;;;;;2.73;2.43;;;;;;;;;;5008625;28;20053;-76
2023/05/12 03:04:06;;;;;;;2.67;2.47;;;;;;;;;;5008989;28;20037;-76
2023/05/12 03:06:32;;;;;;;2.93;2.60;;;;;;;;;;5008910;28;20029;-76
2023/05/12 03:08:58;;;;;;;2.47;2.17;;;;;;;;;;5008042;28;20344;-77
2023/05/12 03:11:23;;;;;;;3.10;2.40;;;;;;;;;;5009229;28;20071;-76
2023/05/12 03:13:49;;;;;;;3.20;2.50;;;;;;;;;;4990274;28;20108;-78
2023/05/12 03:16:16;;;;;;;3.33;2.50;;;;;;;;;;5006733;28;20293;-77
2023/05/12 03:18:41;;;;;;;3.40;2.30;;;;;;;;;;4990169;28;20539;-76
2023/05/12 03:21:06;;;;;;;2.93;2.37;;;;;;;;;;5008529;28;20136;-79
2023/05/12 03:23:31;;;;;;;2.50;2.17;;;;;;;;;;4993009;28;20097;-79
2023/05/12 03:25:57;;;;;;;2.75;2.35;;;;;;;;;;5001065;28;20279;-79
2023/05/12 03:28:23;;;;;;;2.57;2.37;;;;;;;;;;5001136;28;20431;-81
2023/05/12 03:30:48;;;;;;;2.80;2.42;;;;;;;;;;4980836;28;20663;-81
2023/05/12 03:33:14;;;;;;;2.50;2.20;;;;;;;;;;5014156;28;20033;-83
2023/05/12 03:35:39;;;;;;;2.60;2.37;;;;;;;;;;4982933;28;20347;-80
2023/05/12 03:38:04;;;;;;;14.67;2.60;;;;;;;;;;5013367;28;20476;-81
2023/05/12 03:40:29;;;;;;;3.27;2.43;;;;;;;;;;5014439;28;20597;-79
2023/05/12 03:42:54;;;;;;;2.50;2.17;;;;;;;;;;5012684;28;20520;-79
2023/05/12 03:45:20;;;;;;;2.70;2.42;;;;;;;;;;4995077;28;20293;-80
2023/05/12 03:47:47;;;;;;;2.75;2.55;;;;;;;;;;5011758;28;20037;-81
2023/05/12 03:50:13;;;;;;;4.55;2.50;;;;;;;;;;4995383;28;20518;-78
2023/05/12 03:52:40;;;;;;;2.47;2.00;;;;;;;;;;4996824;28;20041;-79
2023/05/12 03:55:05;;;;;;;2.45;2.00;;;;;;;;;;5014638;28;20299;-78
2023/05/12 03:57:31;;;;;;;3.90;2.67;;;;;;;;;;5011981;28;20045;-78
2023/05/12 03:59:56;;;;;;;3.70;2.57;;;;;;;;;;5010596;28;20049;-80
2023/05/12 04:02:21;;;;;;;2.57;2.10;;;;;;;;;;4996789;28;20307;-78
2023/05/12 04:04:46;;;;;;;2.63;2.30;;;;;;;;;;5015337;28;20726;-78
2023/05/12 04:07:11;;;;;;;3.37;2.33;;;;;;;;;;4997267;28;20314;-78
2023/05/12 04:09:37;;;;;;;2.50;2.23;;;;;;;;;;4984399;28;20272;-78
2023/05/12 04:12:02;;;;;;;2.30;2.00;;;;;;;;;;5009531;28;22034;-79
2023/05/12 04:14:27;;;;;;;3.13;2.45;;;;;;;;;;5012857;28;20804;-77
2023/05/12 04:16:53;;;;;;;2.83;2.08;;;;;;;;;;5015247;28;20109;-86
2023/05/12 04:19:18;;;;;;;2.50;2.20;;;;;;;;;;4995270;28;20049;-79
2023/05/12 04:21:43;;;;;;;3.47;2.70;;;;;;;;;;5013579;28;20295;-78
2023/05/12 04:24:09;;;;;;;2.93;2.57;;;;;;;;;;5011490;28;20925;-79
2023/05/12 04:26:34;;;;;;;3.03;2.45;;;;;;;;;;4995967;28;20520;-88
2023/05/12 04:28:59;;;;;;;4.93;2.67;;;;;;;;;;5001499;28;20861;-82
2023/05/12 04:31:33;;;;;;;3.80;2.23;;;;;;;;;;5022047;28;20097;-78
2023/05/12 04:33:59;;;;;;;3.10;2.55;;;;;;;;;;5000354;28;20655;-82
2023/05/12 04:36:24;;;;;;;3.50;2.63;;;;;;;;;;4986525;28;20066;-79
2023/05/12 04:38:50;;;;;;;2.67;2.20;;;;;;;;;;4996678;28;20060;-80
2023/05/12 04:41:15;;;;;;;3.10;2.20;;;;;;;;;;4996033;28;20373;-80
2023/05/12 04:43:40;;;;;;;3.20;2.20;;;;;;;;;;4999333;28;20061;-78
2023/05/12 04:46:06;;;;;;;2.63;2.40;;;;;;;;;;4995710;28;20901;-79
2023/05/12 04:48:31;;;;;;;2.97;2.50;;;;;;;;;;5003565;28;20359;-78
2023/05/12 04:51:00;;;;;;;3.00;2.53;;;;;;;;;;5013019;28;20296;-75
2023/05/12 04:53:25;;;;;;;3.08;2.55;;;;;;;;;;4993366;28;20324;-78
2023/05/12 04:55:51;;;;;;;2.88;2.20;;;;;;;;;;5016319;28;20064;-79
2023/05/12 04:58:16;;;;;;;2.50;2.22;;;;;;;;;;4996727;28;20092;-77
2023/05/12 05:00:42;;;;;;;3.15;2.75;;;;;;;;;;4991074;28;20068;-77
2023/05/12 05:03:07;;;;;;;3.23;2.20;;;;;;;;;;5016915;28;20067;-77
2023/05/12 05:05:32;;;;;;;2.90;2.40;;;;;;;;;;5000446;28;20865;-77
2023/05/12 05:07:57;;;;;;;3.15;2.33;;;;;;;;;;5012471;28;20046;-78
2023/05/12 05:10:23;;;;;;;3.47;2.83;;;;;;;;;;4999012;28;20076;-79
2023/05/12 05:12:48;;;;;;;3.00;2.50;;;;;;;;;;5010195;28;20500;-77
2023/05/12 05:15:13;;;;;;;3.43;2.50;;;;;;;;;;4982288;28;20037;-80
2023/05/12 05:17:38;;;;;;;3.17;2.53;;;;;;;;;;4990803;28;20374;-78
2023/05/12 05:20:04;;;;;;;2.70;2.30;;;;;;;;;;4994979;28;20307;-78
2023/05/12 05:22:29;;;;;;;3.22;2.50;;;;;;;;;;4995995;28;20417;-78
2023/05/12 05:24:55;;;;;;;2.57;2.27;;;;;;;;;;4998072;28;20041;-75
2023/05/12 05:27:20;;;;;;;3.63;2.40;;;;;;;;;;4993976;28;20662;-75
2023/05/12 05:29:45;;;;;;;3.10;2.57;;;;;;;;;;4994107;28;20061;-80
2023/05/12 05:32:10;;;;;;;3.70;2.08;;;;;;;;;;4992040;28;20029;-79
2023/05/12 05:34:36;;;;;;;3.28;2.67;;;;;;;;;;4997940;28;20053;-79
2023/05/12 05:37:01;;;;;;;2.93;2.37;;;;;;;;;;5013408;28;20120;-80
2023/05/12 05:39:29;;;;;;;3.22;2.47;;;;;;;;;;4983643;28;20171;-79
2023/05/12 05:41:55;;;;;;;3.25;2.20;;;;;;;;;;4979502;28;20133;-78
2023/05/12 05:44:20;;;;;;;3.00;2.50;;;;;;;;;;4990883;28;20124;-80
2023/05/12 05:46:45;;;;;;;5.37;3.70;;;;;;;;;;5012287;28;20025;-77
2023/05/12 05:49:10;;;;;;;3.50;2.50;;;;;;;;;;5010473;28;20030;-78
2023/05/12 05:51:35;;;;;;;5.03;2.50;;;;;;;;;;4982372;28;20292;-75
2023/05/12 05:54:01;;;;;;;2.67;2.27;;;;;;;;;;4993526;28;20406;-75
2023/05/12 05:56:26;;;;;;;5.40;2.10;;;;;;;;;;5009030;28;20037;-75
2023/05/12 05:58:52;;;;;;;3.25;2.33;;;;;;;;;;5009135;28;20123;-74
2023/05/12 06:01:17;;;;;;;3.28;1.98;;;;;;;;;;5008995;28;20105;-74
2023/05/12 06:03:42;;;;;;;3.33;2.10;;;;;;;;;;5015478;28;20067;-78
2023/05/12 06:08:54;;;;;;;9.57;2.38;;;;;;;;;;4842268;23;20665;-61
2023/05/12 06:11:24;;;;;;;3.97;2.42;;;;;;;;;;5006133;28;20429;-61
2023/05/12 06:14:13;;;;;;;2.92;2.30;;;;;;;;;;5007144;28;20056;-62
2023/05/12 06:19:49;;;;;;;4.57;2.40;;;;;;;;;;4978856;28;20048;-62
2023/05/12 06:22:38;;;;;;;3.20;2.00;;;;;;;;;;5019032;28;20041;-63
2023/05/12 06:25:53;;;;;;;3.63;2.30;;;;;;;;;;5018016;28;20065;-62
2023/05/12 06:34:37;;;;;;;3.85;2.38;;;;;;;;;;5001706;28;20140;-62
2023/05/12 06:37:08;;;;;;;3.83;2.57;;;;;;;;;;5004683;28;20117;-61
2023/05/12 06:40:13;;;;;;;2.63;2.20;;;;;;;;;;4986029;28;20386;-60
2023/05/12 06:43:11;;;;;;;2.80;2.17;;;;;;;;;;4969778;28;20534;-61
2023/05/12 06:46:26;;;;;;;2.72;2.17;;;;;;;;;;4973206;28;20038;-62
2023/05/12 06:52:59;;;;;;;3.45;2.05;;;;;;;;;;4961186;28;20158;-62
2023/05/12 06:55:49;;;;;;;;;;;;;;;;;;4969026;28;20035;-65
2023/05/12 06:59:03;;;;;;;3.20;2.22;;;;;;;;;;4985577;28;19909;-61
2023/05/12 07:05:35;;;;;;;2.42;1.98;;;;;;;;;;4983464;28;20414;-61
2023/05/12 07:08:24;;;;;;;3.63;2.25;;;;;;;;;;5002994;28;20085;-63
2023/05/12 07:11:41;;;;;;;2.92;2.15;;;;;;;;;;4987407;28;20038;-61
2023/05/12 07:14:56;;;;;;;2.65;2.35;;;;;;;;;;4954902;28;20241;-59
2023/05/12 07:18:11;;;;;;;2.97;2.10;;;;;;;;;;4952615;28;20216;-59
2023/05/12 07:21:28;;;;;;;2.90;2.25;;;;;;;;;;4987552;28;20049;-57
2023/05/12 07:28:00;;;;;;;3.38;2.40;;;;;;;;;;4932594;28;20396;-61
2023/05/12 07:34:32;;;;;;;5.03;2.42;;;;;;;;;;5013233;28;20098;-63
2023/05/12 07:37:21;;;;;;;3.33;2.20;;;;;;;;;;4987176;28;20510;-63
2023/05/12 07:40:09;;;;;;;3.03;2.40;;;;;;;;;;4979926;28;20049;-64
2023/05/12 07:42:57;;;;;;;3.83;2.60;;;;;;;;;;5042940;28;20405;-66
2023/05/12 07:45:55;;;;;;;3.47;2.60;;;;;;;;;;5000735;28;20425;-63
2023/05/12 07:49:09;;;;;;;3.83;2.42;;;;;;;;;;5004835;28;20107;-64
2023/05/12 07:55:25;;;;;;;3.20;2.30;;;;;;;;;;4967174;28;20580;-63
2023/05/12 07:58:40;;;;;;;2.55;2.20;;;;;;;;;;5001679;28;20104;-62
2023/05/12 08:05:12;;;;;;;3.80;2.60;;;;;;;;;;4978199;28;20072;-62
2023/05/12 08:08:38;;;;;;;25.05;6.43;;;;;;;;;;4997939;28;20035;-64
2023/05/12 08:11:54;;;;;;;26.80;6.35;;;;;;;;;;4944967;28;20105;-62
2023/05/12 08:15:16;;;;;;;19.98;5.72;;;;;;;;;;4980192;28;20101;-60
2023/05/12 08:21:53;;;;;;;20.65;5.57;;;;;;;;;;4913245;28;20046;-63
2023/05/12 08:24:41;;;;;;;16.67;4.85;;;;;;;;;;4974478;28;20029;-66
2023/05/12 08:27:58;;;;;;;14.82;4.78;;;;;;;;;;4946428;28;20093;-62
2023/05/12 08:31:19;;;;;;;17.23;4.60;;;;;;;;;;4988690;28;20461;-63
2023/05/12 08:34:37;;;;;;;14.48;4.50;;;;;;;;;;4971993;28;20049;-62
2023/05/12 08:37:35;;;;;;;13.55;4.18;;;;;;;;;;4971174;28;20502;-63
2023/05/12 08:40:52;;;;;;;12.20;4.45;;;;;;;;;;4988245;28;20542;-63
2023/05/12 08:44:08;;;;;;;15.10;4.63;;;;;;;;;;4998380;28;20459;-62
2023/05/12 08:47:25;;;;;;;13.10;4.00;;;;;;;;;;4996161;28;20042;-66
2023/05/12 08:50:50;;;;;;;10.13;4.20;;;;;;;;;;4980802;28;20053;-64
2023/05/12 08:54:06;;;;;;;8.55;4.22;;;;;;;;;;4969152;28;20041;-64
2023/05/12 08:57:23;;;;;;;9.05;4.10;;;;;;;;;;4896332;28;20039;-61
2023/05/12 09:03:55;;;;;;;10.48;3.92;;;;;;;;;;4959485;28;20459;-61
2023/05/12 09:07:11;;;;;;;11.30;3.83;;;;;;;;;;4932117;28;20504;-62
2023/05/12 09:10:18;;;;;;;9.80;4.03;;;;;;;;;;4944980;28;20042;-63
2023/05/12 09:16:50;;;;;;;10.65;4.00;;;;;;;;;;4966076;28;20052;-64
2023/05/12 09:20:09;;;;;;;7.43;3.70;;;;;;;;;;4985738;28;20052;-58
2023/05/12 09:23:32;;;;;;;9.32;3.58;;;;;;;;;;4968663;28;20200;-60
2023/05/12 09:26:39;;;;;;;7.03;3.55;;;;;;;;;;4915285;28;20078;-59
2023/05/12 09:32:25;;;;;;;8.35;3.72;;;;;;;;;;5000161;28;20007;-65
2023/05/12 09:42:05;;;;;;;8.48;4.15;;;;;;;;;;4993251;28;20133;-65
2023/05/12 09:45:20;;;;;;;7.88;3.90;;;;;;;;;;4964984;28;20034;-65
2023/05/12 09:51:36;;;;;;;8.48;3.17;;;;;;;;;;5001119;28;20045;-58
2023/05/12 09:54:51;;;;;;;6.97;3.28;;;;;;;;;;4986759;28;20413;-61
2023/05/12 09:58:08;;;;;;;9.70;4.35;;;;;;;;;;4906415;29;20046;-61
2023/05/12 10:01:16;;;;;;;8.65;4.25;;;;;;;;;;4971661;28;20470;-61
2023/05/12 10:04:20;;;;;;;10.65;4.40;;;;;;;;;;4980620;28;20521;-60
2023/05/12 10:07:45;;;;;;;9.02;3.92;;;;;;;;;;4968817;28;20037;-60
2023/05/12 10:11:07;;;;;;;10.73;4.60;;;;;;;;;;4962138;28;20054;-61
2023/05/12 10:14:02;;;;;;;9.10;4.30;;;;;;;;;;4979575;28;20066;-61
2023/05/12 10:20:28;;;;;;;8.05;3.83;;;;;;;;;;4988376;28;20052;-61
2023/05/12 10:23:41;;;;;;;6.15;3.70;;;;;;;;;;4971523;28;20056;-60
2023/05/12 10:26:30;;;;;;;8.60;3.72;;;;;;;;;;4962004;28;20492;-61
2023/05/12 10:29:32;;;;;;;5.85;4.00;;;;;;;;;;4975154;28;21666;-61
2023/05/12 10:32:32;;;;;;;6.80;3.70;;;;;;;;;;4965926;28;20046;-62
2023/05/12 10:36:07;;;;;;;6.63;3.10;;;;;;;;;;4960839;28;20062;-60
2023/05/12 10:39:15;;;;;;;5.35;3.00;;;;;;;;;;4986502;28;20475;-61
2023/05/12 10:42:25;;;;;;;7.18;3.55;;;;;;;;;;4963240;28;21166;-60
2023/05/12 10:45:41;;;;;;;5.68;3.78;;;;;;;;;;4970252;28;20044;-60
2023/05/12 10:52:26;;;;;;;7.13;3.38;;;;;;;;;;4944916;28;20097;-61
2023/05/12 10:55:28;;;;;;;8.88;3.22;;;;;;;;;;4966686;28;20506;-61
2023/05/12 11:00:46;;;;;;;7.60;3.50;;;;;;;;;;5223868;23;20042;-60
2023/05/12 11:04:02;;;;;;;6.70;3.70;;;;;;;;;;5007173;28;20032;-59
2023/05/12 11:19:28;;;;;;;6.07;3.42;;;;;;;;;;4991747;28;20404;-61
2023/05/12 11:25:41;;;;;;;5.95;3.20;;;;;;;;;;4988552;28;20049;-60
2023/05/12 11:35:13;;;;;;;5.95;3.15;;;;;;;;;;4999039;28;20725;-61
2023/05/12 11:38:39;;;;;;;6.00;3.13;;;;;;;;;;4987500;28;20151;-61
2023/05/12 11:41:43;;;;;;;5.68;3.20;;;;;;;;;;4915433;29;20220;-59
2023/05/12 11:50:29;;;;;;;4.65;2.65;;;;;;;;;;4984617;28;20041;-60
2023/05/12 11:53:28;;;;;;;3.97;3.08;;;;;;;;;;4988674;28;20010;-61
2023/05/12 11:56:15;;;;;;;;;;;;;;;;;;4975979;28;20113;-60
2023/05/12 12:02:47;;;;;;;4.07;2.72;;;;;;;;;;4921539;28;20046;-62
2023/05/12 12:08:44;;;;;;;5.28;3.40;;;;;;;;;;4956230;28;20177;-61
2023/05/12 12:12:11;;;;;;;3.70;2.70;;;;;;;;;;4998099;28;20061;-59
2023/05/12 12:14:51;;;;;;;5.57;2.78;;;;;;;;;;4983470;28;20030;-60
2023/05/12 12:18:09;;;;;;;4.53;3.00;;;;;;;;;;4952190;28;20058;-59
2023/05/12 12:21:07;;;;;;;4.95;3.03;;;;;;;;;;4981324;28;20408;-60
2023/05/12 12:27:21;;;;;;;5.97;3.00;;;;;;;;;;4930137;28;20105;-60
2023/05/12 12:30:37;;;;;;;4.10;2.80;;;;;;;;;;4944075;28;20679;-60
2023/05/12 12:33:34;;;;;;;4.47;2.90;;;;;;;;;;4954309;28;20034;-60
2023/05/12 12:36:24;;;;;;;5.43;3.15;;;;;;;;;;4968571;28;20519;-60
2023/05/12 12:45:26;;;;;;;5.07;2.90;;;;;;;;;;4963924;28;19917;-59
2023/05/12 12:48:27;;;;;;;3.80;2.72;;;;;;;;;;4981462;28;20045;-61
2023/05/12 12:51:14;;;;;;;4.85;3.00;;;;;;;;;;4978372;28;20419;-61
2023/05/12 12:53:50;;;;;;;5.47;2.70;;;;;;;;;;4969967;28;20557;-61
2023/05/12 12:57:18;;;;;;;4.68;2.70;;;;;;;;;;4967036;28;20098;-61
2023/05/12 13:00:26;;;;;;;5.22;2.72;;;;;;;;;;4978646;28;20074;-60
2023/05/12 13:06:57;;;;;;;4.80;3.15;;;;;;;;;;4976427;28;20042;-61
2023/05/12 13:09:45;;;;;;;5.15;2.92;;;;;;;;;;4982123;28;20035;-61
2023/05/12 13:12:53;;;;;;;4.03;3.00;;;;;;;;;;4967413;28;20069;-60
2023/05/12 13:16:08;;;;;;;4.32;2.70;;;;;;;;;;4978515;28;20034;-60
2023/05/12 13:19:14;;;;;;;4.15;2.95;;;;;;;;;;4966950;28;20463;-61
2023/05/12 13:22:15;;;;;;;4.82;3.22;;;;;;;;;;4996309;28;20080;-61
2023/05/12 13:25:32;;;;;;;3.65;2.60;;;;;;;;;;4966954;28;20070;-62
2023/05/12 13:31:20;;;;;;;3.67;2.72;;;;;;;;;;4986442;28;20380;-60
2023/05/12 13:37:34;;;;;;;4.45;2.78;;;;;;;;;;4950451;28;20086;-61
2023/05/12 13:44:16;;;;;;;3.38;2.70;;;;;;;;;;4967154;28;20088;-61
2023/05/12 13:50:18;;;;;;;4.25;2.60;;;;;;;;;;4972614;28;19920;-60
2023/05/12 13:52:52;;;;;;;4.25;2.83;;;;;;;;;;4980976;28;20125;-60
2023/05/12 13:56:07;;;;;;;3.65;2.50;;;;;;;;;;4978577;28;20169;-61
2023/05/12 13:58:55;;;;;;;4.28;2.80;;;;;;;;;;4977564;28;20121;-59
2023/05/12 14:01:43;;;;;;;4.07;2.83;;;;;;;;;;4977390;28;20121;-60
2023/05/12 14:04:13;;;;;;;4.43;2.92;;;;;;;;;;4991837;28;20537;-61
2023/05/12 14:09:49;;;;;;;3.72;2.80;;;;;;;;;;4987283;28;19917;-62
2023/05/12 14:13:06;;;;;;;3.92;2.67;;;;;;;;;;4980475;28;20036;-60
2023/05/12 14:15:53;;;;;;;3.90;2.83;;;;;;;;;;4939032;28;20046;-62
2023/05/12 14:22:26;;;;;;;4.00;2.60;;;;;;;;;;4971179;28;20069;-59
2023/05/12 14:25:42;;;;;;;4.07;2.65;;;;;;;;;;4966759;28;20043;-60
2023/05/12 14:31:48;;;;;;;3.25;2.50;;;;;;;;;;4979275;28;20064;-64
2023/05/12 14:34:35;;;;;;;3.97;2.33;;;;;;;;;;4972437;28;20069;-60
2023/05/12 14:37:23;;;;;;;3.40;2.50;;;;;;;;;;4980462;28;21558;-61
2023/05/12 14:43:28;;;;;;;3.63;2.72;;;;;;;;;;4967238;28;20050;-62
2023/05/12 14:46:25;;;;;;;3.30;2.60;;;;;;;;;;4951729;28;20042;-62
2023/05/12 14:49:31;;;;;;;4.43;2.92;;;;;;;;;;4970897;28;20034;-59
2023/05/12 14:52:49;;;;;;;4.45;2.53;;;;;;;;;;4936075;28;20857;-60
2023/05/12 14:56:15;;;;;;;3.53;2.67;;;;;;;;;;4980417;28;20527;-61
2023/05/12 14:59:30;;;;;;;5.32;2.88;;;;;;;;;;4951518;28;20118;-63
2023/05/12 15:02:29;;;;;;;3.95;2.75;;;;;;;;;;4959961;28;20423;-63
2023/05/12 15:05:28;;;;;;;4.50;2.70;;;;;;;;;;4966227;28;20057;-61
2023/05/12 15:08:43;;;;;;;4.13;2.70;;;;;;;;;;4957758;28;20062;-60
2023/05/12 15:11:31;;;;;;;3.33;2.67;;;;;;;;;;4922387;29;20408;-60
2023/05/12 15:14:48;;;;;;;3.42;2.67;;;;;;;;;;4964849;28;20388;-63
2023/05/12 15:18:21;;;;;;;3.28;2.35;;;;;;;;;;4945851;28;20059;-61
2023/05/12 15:21:55;;;;;;;2.92;2.38;;;;;;;;;;4966377;28;20062;-60
2023/05/12 15:28:33;;;;;;;3.83;2.55;;;;;;;;;;4977842;28;20368;-60
2023/05/12 15:31:37;;;;;;;3.33;2.35;;;;;;;;;;4973760;28;20049;-60
2023/05/12 15:34:21;;;;;;;3.45;2.60;;;;;;;;;;4957653;28;20039;-60
2023/05/12 15:43:31;;;;;;;2.90;2.40;;;;;;;;;;4994340;28;20120;-60
2023/05/12 15:46:27;;;;;;;3.03;2.47;;;;;;;;;;4978131;28;20038;-62
2023/05/12 15:55:58;;;;;;;3.60;2.58;;;;;;;;;;4981962;28;20100;-64
2023/05/12 15:59:15;;;;;;;5.05;2.33;;;;;;;;;;4975451;28;20589;-60
2023/05/12 16:01:54;;;;;;;3.20;2.40;;;;;;;;;;4991062;28;20058;-60
2023/05/12 16:08:36;;;;;;;3.80;2.80;;;;;;;;;;4980373;28;20130;-61
2023/05/12 16:14:46;;;;;;;4.30;2.65;;;;;;;;;;4971303;28;20566;-60
2023/05/12 16:18:01;;;;;;;3.53;2.35;;;;;;;;;;4988490;28;20042;-62
2023/05/12 16:27:30;;;;;;;3.45;2.40;;;;;;;;;;4952597;28;20080;-58
2023/05/12 16:30:43;;;;;;;2.85;2.38;;;;;;;;;;4992481;28;20156;-60
2023/05/12 16:33:14;;;;;;;3.45;2.20;;;;;;;;;;5001540;28;20042;-60
2023/05/12 16:39:28;;;;;;;3.30;2.55;;;;;;;;;;4982559;28;20081;-57
2023/05/12 16:42:08;;;;;;;3.67;2.35;;;;;;;;;;4990535;28;20117;-61
2023/05/12 16:48:21;;;;;;;4.43;2.63;;;;;;;;;;4990155;28;20053;-60
2023/05/12 16:51:11;;;;;;;4.45;2.40;;;;;;;;;;5001260;28;20048;-60
2023/05/12 16:54:00;;;;;;;3.40;2.90;;;;;;;;;;4953999;28;20040;-61
2023/05/12 16:56:48;;;;;;;3.95;2.70;;;;;;;;;;4973173;28;20021;-60
2023/05/12 17:00:08;;;;;;;3.78;2.35;;;;;;;;;;4964979;28;20104;-60
2023/05/12 17:03:13;;;;;;;3.17;2.30;;;;;;;;;;4970844;28;20046;-62
2023/05/12 17:05:58;;;;;;;4.68;2.65;;;;;;;;;;4983069;28;20050;-61
2023/05/12 17:09:07;;;;;;;4.40;2.50;;;;;;;;;;5001460;28;20026;-60
2023/05/12 17:15:33;;;;;;;4.07;2.60;;;;;;;;;;4966747;28;20038;-61
2023/05/12 17:18:48;;;;;;;3.95;2.40;;;;;;;;;;4984096;28;20820;-61
2023/05/12 17:21:36;;;;;;;4.25;2.30;;;;;;;;;;4969656;28;20411;-61
2023/05/12 17:24:44;;;;;;;4.72;3.00;;;;;;;;;;4960928;28;20088;-60
2023/05/12 17:28:00;;;;;;;3.47;2.47;;;;;;;;;;4956138;28;20399;-60
2023/05/12 17:31:14;;;;;;;5.28;2.53;;;;;;;;;;4963448;28;20403;-60
2023/05/12 17:34:23;;;;;;;3.80;2.72;;;;;;;;;;4981506;28;20026;-61
2023/05/12 17:37:04;;;;;;;3.33;2.60;;;;;;;;;;4980771;28;20942;-60
2023/05/12 17:42:58;;;;;;;4.07;2.40;;;;;;;;;;4973875;28;19960;-60
2023/05/12 17:45:38;;;;;;;6.15;2.60;;;;;;;;;;4973292;28;20553;-59
2023/05/12 17:51:34;;;;;;;7.47;3.03;;;;;;;;;;4948321;28;20130;-59
2023/05/12 17:54:39;;;;;;;5.43;2.80;;;;;;;;;;4959949;28;20050;-60
2023/05/12 17:57:36;;;;;;;3.92;2.40;;;;;;;;;;4948262;28;20098;-59
2023/05/12 18:03:42;;;;;;;6.53;2.78;;;;;;;;;;4942779;28;20205;-61
2023/05/12 18:06:40;;;;;;;9.52;3.28;;;;;;;;;;4967545;28;20065;-60
2023/05/12 18:09:29;;;;;;;6.60;2.55;;;;;;;;;;4968721;28;20038;-61
2023/05/12 18:12:59;;;;;;;8.38;2.85;;;;;;;;;;4979453;28;20034;-61
2023/05/12 18:16:00;;;;;;;6.95;2.72;;;;;;;;;;4974890;28;20495;-60
2023/05/12 18:19:17;;;;;;;6.93;2.92;;;;;;;;;;4957935;28;20051;-61
2023/05/12 18:25:21;;;;;;;5.45;2.42;;;;;;;;;;4936555;28;20046;-61
2023/05/12 18:28:08;;;;;;;5.35;2.47;;;;;;;;;;4957188;28;20116;-61
2023/05/12 18:31:06;;;;;;;6.40;3.38;;;;;;;;;;4971979;28;20137;-60
2023/05/12 18:34:05;;;;;;;5.20;2.60;;;;;;;;;;4952675;28;20082;-61
2023/05/12 18:37:01;;;;;;;5.70;2.80;;;;;;;;;;4949783;28;20049;-61
2023/05/12 18:39:47;;;;;;;5.75;2.60;;;;;;;;;;4972900;28;20062;-59
2023/05/12 18:42:33;;;;;;;5.22;2.50;;;;;;;;;;4938808;28;20058;-61
2023/05/12 18:45:23;;;;;;;4.63;2.70;;;;;;;;;;4960199;28;20097;-60
2023/05/12 18:48:11;;;;;;;3.78;2.30;;;;;;;;;;4952698;28;20038;-61
2023/05/12 18:51:00;;;;;;;7.25;2.85;;;;;;;;;;4919229;28;20139;-60
2023/05/12 18:53:41;;;;;;;5.25;2.30;;;;;;;;;;4912102;28;20039;-61
2023/05/12 18:56:26;;;;;;;3.33;2.45;;;;;;;;;;4960502;28;20116;-60
2023/05/12 18:59:09;;;;;;;4.18;2.47;;;;;;;;;;4965036;28;20082;-61
2023/05/12 19:01:40;;;;;;;5.05;2.65;;;;;;;;;;4950223;28;20047;-60
2023/05/12 19:04:33;;;;;;;4.82;2.50;;;;;;;;;;4956747;28;20069;-63
2023/05/12 19:07:16;;;;;;;5.30;2.65;;;;;;;;;;4962513;28;20038;-61
2023/05/12 19:10:18;;;;;;;4.07;2.42;;;;;;;;;;4962161;28;20283;-59
2023/05/12 19:13:10;;;;;;;4.13;2.25;;;;;;;;;;4971312;28;20022;-60
2023/05/12 19:16:03;;;;;;;3.50;2.10;;;;;;;;;;4966181;28;20369;-63
2023/05/12 19:18:54;;;;;;;4.30;2.67;;;;;;;;;;4957098;28;20130;-62
2023/05/12 19:21:45;;;;;;;3.88;2.53;;;;;;;;;;4962990;28;20871;-62
2023/05/12 19:24:31;;;;;;;4.40;2.30;;;;;;;;;;4968229;28;20108;-61
2023/05/12 19:27:21;;;;;;;3.53;2.55;;;;;;;;;;4949350;28;20101;-61
2023/05/12 19:30:07;;;;;;;4.28;2.38;;;;;;;;;;4957427;28;20046;-61
2023/05/12 19:32:56;;;;;;;3.67;2.10;;;;;;;;;;4966518;28;20023;-62
2023/05/12 19:38:42;;;;;;;4.70;2.70;;;;;;;;;;4959286;28;20073;-61
2023/05/12 19:41:15;;;;;;;;;;;;;;;;;;4967840;28;20046;-59
2023/05/12 19:44:01;;;;;;;4.30;2.70;;;;;;;;;;4965586;28;20109;-61
2023/05/12 19:46:49;;;;;;;4.13;2.38;;;;;;;;;;4928796;28;20236;-60
2023/05/12 19:49:35;;;;;;;4.13;2.40;;;;;;;;;;4958730;28;20039;-60